createdAt,value
2022-08-16T00:02:35.306Z,99616.28
2022-08-16T00:05:05.589Z,99618.84
2022-08-16T00:07:34.401Z,99550.06
2022-08-16T00:10:05.641Z,99609.50
2022-08-16T00:12:34.599Z,99641.56
2022-08-16T00:15:11.640Z,99635.88
2022-08-16T00:17:56.094Z,99627.91
2022-08-16T00:20:27.530Z,99625.66
2022-08-16T00:22:56.390Z,99638.13
2022-08-16T00:26:36.430Z,99623.88
2022-08-16T00:28:15.203Z,99638.34
2022-08-16T00:30:43.963Z,99638.00
2022-08-16T00:33:15.021Z,99636.94
2022-08-16T00:35:43.807Z,99600.56
2022-08-16T00:38:40.785Z,99656.78
2022-08-16T00:41:02.912Z,99665.44
2022-08-16T00:43:43.195Z,99662.22
2022-08-16T00:46:34.337Z,99655.50
2022-08-16T00:49:18.849Z,99596.47
2022-08-16T00:51:55.079Z,99653.56
2022-08-16T00:54:27.997Z,99652.81
2022-08-16T00:57:00.030Z,99656.91
2022-08-16T00:59:32.884Z,99659.34
2022-08-16T01:02:30.965Z,99660.25
2022-08-16T01:05:11.292Z,99611.69
2022-08-16T01:07:50.544Z,99667.94
2022-08-16T01:10:21.909Z,99667.06
2022-08-16T01:13:07.395Z,99679.94
2022-08-16T01:15:43.063Z,99676.28
2022-08-16T01:18:39.023Z,99655.16
2022-08-16T01:21:22.344Z,99691.19
2022-08-16T01:24:52.921Z,99694.97
2022-08-16T01:27:03.884Z,99714.31
2022-08-16T01:29:57.988Z,99634.75
2022-08-16T01:32:33.771Z,99702.00
2022-08-16T01:35:08.450Z,99689.47
2022-08-16T01:37:53.869Z,99688.34
2022-08-16T01:40:30.973Z,99688.94
2022-08-16T01:43:00.648Z,99699.75
2022-08-16T01:45:40.459Z,99680.69
2022-08-16T01:48:19.843Z,99675.28
2022-08-16T01:51:09.438Z,99685.31
2022-08-16T01:53:41.227Z,99694.50
2022-08-16T01:56:29.631Z,99685.72
2022-08-16T01:59:01.145Z,99679.91
2022-08-16T02:01:32.155Z,99666.97
2022-08-16T02:04:10.136Z,99673.03
2022-08-16T02:06:45.887Z,99676.16
2022-08-16T02:09:17.927Z,99671.16
2022-08-16T02:11:53.677Z,99662.22
2022-08-16T02:14:27.416Z,99663.88
2022-08-16T02:17:02.975Z,99654.50
2022-08-16T02:19:59.860Z,99656.81
2022-08-16T02:22:34.961Z,99673.28
2022-08-16T02:25:14.827Z,99657.41
2022-08-16T02:27:50.946Z,99656.19
2022-08-16T02:30:37.386Z,99659.72
2022-08-16T02:33:15.416Z,99648.22
2022-08-16T02:35:49.757Z,99648.69
2022-08-16T02:38:26.331Z,99645.28
2022-08-16T02:40:55.603Z,99642.31
2022-08-16T02:43:28.140Z,99644.00
2022-08-16T02:46:00.609Z,99596.06
2022-08-16T02:48:32.155Z,99563.25
2022-08-16T02:51:06.971Z,99600.13
2022-08-16T02:53:45.864Z,99634.16
2022-08-16T02:56:15.953Z,99636.44
2022-08-16T02:58:49.385Z,99606.84
2022-08-16T03:01:25.103Z,99635.81
2022-08-16T03:04:49.655Z,99634.41
2022-08-16T03:06:57.730Z,99635.84
2022-08-16T03:09:48.848Z,99624.56
2022-08-16T03:12:30.466Z,99623.91
2022-08-16T03:15:10.918Z,99624.72
2022-08-16T03:17:53.019Z,99617.59
2022-08-16T03:20:32.465Z,99616.41
2022-08-16T03:23:06.417Z,99607.84
2022-08-16T03:25:43.197Z,99473.16
2022-08-16T03:28:14.155Z,99626.13
2022-08-16T03:30:48.704Z,99628.63
2022-08-16T03:33:18.583Z,99617.16
2022-08-16T03:35:59.376Z,99634.66
2022-08-16T03:38:49.893Z,99631.09
2022-08-16T03:41:25.447Z,99631.69
2022-08-16T03:44:01.300Z,99628.03
2022-08-16T03:46:48.347Z,99634.03
2022-08-16T03:49:35.734Z,99640.41
2022-08-16T03:52:07.907Z,99638.81
2022-08-16T03:54:38.390Z,99581.22
2022-08-16T03:57:22.982Z,99635.00
2022-08-16T03:59:53.924Z,99638.78
2022-08-16T04:02:31.357Z,99575.34
2022-08-16T04:05:03.930Z,99631.09
2022-08-16T04:07:33.973Z,99639.38
2022-08-16T04:10:36.339Z,99628.84
2022-08-16T04:12:59.469Z,99644.03
2022-08-16T04:15:31.312Z,99626.91
2022-08-16T04:18:21.509Z,99621.81
2022-08-16T04:20:51.763Z,99634.22
2022-08-16T04:23:25.382Z,99635.56
2022-08-16T04:25:55.601Z,99628.94
2022-08-16T04:28:54.632Z,99623.31
2022-08-16T04:31:14.881Z,99630.38
2022-08-16T04:33:50.930Z,99634.09
2022-08-16T04:36:23.114Z,99617.31
2022-08-16T04:38:52.687Z,99621.75
2022-08-16T04:41:32.670Z,99623.47
2022-08-16T04:44:32.947Z,99601.31
2022-08-16T04:47:00.900Z,99636.81
2022-08-16T04:49:43.979Z,99633.13
2022-08-16T04:52:33.790Z,99634.81
2022-08-16T04:55:08.754Z,99630.56
2022-08-16T04:57:41.290Z,99640.53
2022-08-16T05:00:32.035Z,99643.41
2022-08-16T05:03:22.697Z,99625.88
2022-08-16T05:05:59.373Z,99657.66
2022-08-16T05:08:32.202Z,99650.50
2022-08-16T05:11:11.995Z,99654.84
2022-08-16T05:13:42.980Z,99629.88
2022-08-16T05:16:23.344Z,99651.31
2022-08-16T05:19:11.627Z,99651.44
2022-08-16T05:21:50.083Z,99639.09
2022-08-16T05:24:24.860Z,99657.34
2022-08-16T05:26:55.524Z,99664.59
2022-08-16T05:29:57.725Z,99660.59
2022-08-16T05:32:32.419Z,99666.22
2022-08-16T05:35:10.876Z,99669.28
2022-08-16T05:37:48.930Z,99657.69
2022-08-16T05:40:18.736Z,99601.63
2022-08-16T05:42:51.196Z,99683.00
2022-08-16T05:45:23.783Z,99681.94
2022-08-16T05:47:59.683Z,99691.22
2022-08-16T05:50:36.659Z,99679.69
2022-08-16T05:53:07.992Z,99688.69
2022-08-16T05:55:45.683Z,99654.50
2022-08-16T05:58:31.498Z,99672.47
2022-08-16T06:01:02.112Z,99674.59
2022-08-16T06:03:32.085Z,99678.50
2022-08-16T06:06:06.316Z,99676.44
2022-08-16T06:08:44.781Z,99676.66
2022-08-16T06:11:17.009Z,99681.13
2022-08-16T06:13:55.466Z,99674.13
2022-08-16T06:16:36.269Z,99674.47
2022-08-16T06:19:05.895Z,99682.78
2022-08-16T06:21:37.181Z,99681.34
2022-08-16T06:24:52.681Z,99669.81
2022-08-16T06:26:58.069Z,99677.44
2022-08-16T06:29:32.018Z,99685.50
2022-08-16T06:32:02.401Z,99695.84
2022-08-16T06:34:56.899Z,99683.34
2022-08-16T06:37:22.914Z,99664.97
2022-08-16T06:39:53.411Z,99691.78
2022-08-16T06:42:53.950Z,99714.13
2022-08-16T06:45:43.745Z,99719.59
2022-08-16T06:48:32.506Z,99742.44
2022-08-16T06:51:04.325Z,99761.53
2022-08-16T06:53:35.689Z,99766.53
2022-08-16T06:56:14.375Z,99767.75
2022-08-16T06:59:08.962Z,99775.41
2022-08-16T07:01:54.054Z,99777.72
2022-08-16T07:04:32.874Z,99768.91
2022-08-16T07:07:17.030Z,99782.50
2022-08-16T07:09:45.872Z,99784.63
2022-08-16T07:12:16.605Z,99782.38
2022-08-16T07:14:49.138Z,99774.66
2022-08-16T07:17:21.750Z,99797.78
2022-08-16T07:20:03.474Z,99809.09
2022-08-16T07:22:53.062Z,99746.78
2022-08-16T07:25:40.587Z,99809.28
2022-08-16T07:28:20.886Z,99793.63
2022-08-16T07:30:54.959Z,99756.38
2022-08-16T07:33:53.737Z,99782.47
2022-08-16T07:36:30.820Z,99788.94
2022-08-16T07:39:01.475Z,99805.28
2022-08-16T07:41:36.360Z,99810.28
2022-08-16T07:44:15.383Z,99805.69
2022-08-16T07:46:47.350Z,99791.06
2022-08-16T07:49:25.107Z,99807.16
2022-08-16T07:51:56.162Z,99744.91
2022-08-16T07:54:37.743Z,99784.25
2022-08-16T07:57:12.413Z,99764.13
2022-08-16T07:59:46.229Z,99813.47
2022-08-16T08:02:20.062Z,99817.94
2022-08-16T08:04:52.463Z,99805.72
2022-08-16T08:07:21.702Z,99806.66
2022-08-16T08:09:52.887Z,99802.19
2022-08-16T08:12:32.429Z,99776.91
2022-08-16T08:15:11.066Z,99808.38
2022-08-16T08:17:44.081Z,99797.31
2022-08-16T08:20:28.120Z,99813.09
2022-08-16T08:23:00.787Z,99813.97
2022-08-16T08:25:54.642Z,99819.81
2022-08-16T08:28:24.049Z,99822.31
2022-08-16T08:31:03.637Z,99810.19
2022-08-16T08:33:37.009Z,99835.66
2022-08-16T08:36:11.592Z,99829.03
2022-08-16T08:38:52.484Z,99798.97
2022-08-16T08:41:27.723Z,99806.88
2022-08-16T08:43:58.886Z,99837.69
2022-08-16T08:46:35.761Z,99831.25
2022-08-16T08:49:07.913Z,99833.75
2022-08-16T08:51:42.134Z,99836.22
2022-08-16T08:54:20.579Z,99831.41
2022-08-16T08:56:54.276Z,99842.09
2022-08-16T08:59:29.666Z,99832.16
2022-08-16T09:02:01.323Z,99810.38
2022-08-16T09:04:38.948Z,99830.19
2022-08-16T09:07:09.027Z,99839.06
2022-08-16T09:09:41.187Z,99832.94
2022-08-16T09:12:35.407Z,99828.31
2022-08-16T09:15:08.328Z,99841.31
2022-08-16T09:17:51.809Z,99843.41
2022-08-16T09:20:25.544Z,99852.63
2022-08-16T09:22:55.709Z,99851.34
2022-08-16T09:25:34.520Z,99865.91
2022-08-16T09:28:11.354Z,99855.97
2022-08-16T09:30:47.295Z,99861.56
2022-08-16T09:33:20.026Z,99848.44
2022-08-16T09:35:53.046Z,99853.34
2022-08-16T09:38:31.977Z,99876.19
2022-08-16T09:41:03.476Z,99846.31
2022-08-16T09:43:58.605Z,99856.72
2022-08-16T09:46:33.389Z,99868.31
2022-08-16T09:49:14.380Z,99865.38
2022-08-16T09:51:44.897Z,99873.50
2022-08-16T09:54:16.761Z,99861.16
2022-08-16T09:56:53.217Z,99871.59
2022-08-16T09:59:25.156Z,99873.91
2022-08-16T10:01:55.424Z,99862.28
2022-08-16T10:04:31.158Z,99857.66
2022-08-16T10:07:15.035Z,99862.19
2022-08-16T10:09:54.683Z,99828.50
2022-08-16T10:12:44.661Z,99862.84
2022-08-16T10:15:17.658Z,99857.66
2022-08-16T10:18:00.969Z,99841.91
2022-08-16T10:20:35.401Z,99839.94
2022-08-16T10:23:07.329Z,99837.00
2022-08-16T10:27:16.984Z,99833.16
2022-08-16T10:28:32.353Z,99835.91
2022-08-16T10:31:11.827Z,99850.69
2022-08-16T10:33:43.413Z,99853.59
2022-08-16T10:36:39.236Z,99862.03
2022-08-16T10:39:04.441Z,99853.00
2022-08-16T10:41:33.744Z,99853.91
2022-08-16T10:44:02.790Z,99880.75
2022-08-16T10:46:39.994Z,99889.28
2022-08-16T10:49:11.982Z,99889.22
2022-08-16T10:52:01.372Z,99886.50
2022-08-16T10:54:31.526Z,99893.56
2022-08-16T10:57:04.172Z,99883.69
2022-08-16T10:59:45.051Z,99876.44
2022-08-16T11:03:00.463Z,99893.84
2022-08-16T11:05:14.308Z,99882.88
2022-08-16T11:07:53.409Z,99895.31
2022-08-16T11:19:03.816Z,99879.78
2022-08-16T11:22:11.161Z,99904.06
2022-08-16T11:24:41.702Z,99892.84
2022-08-16T11:27:26.907Z,99899.25
2022-08-16T11:30:09.202Z,99894.84
2022-08-16T11:32:44.310Z,99895.13
2022-08-16T11:35:17.139Z,99902.59
2022-08-16T11:40:44.369Z,99901.50
2022-08-16T11:43:16.751Z,99889.00
2022-08-16T11:45:54.195Z,99904.34
2022-08-16T11:48:24.892Z,99901.69
2022-08-16T11:50:54.155Z,99905.31
2022-08-16T11:53:23.852Z,99912.81
2022-08-16T11:55:55.547Z,99911.38
2022-08-16T11:58:26.179Z,99910.56
2022-08-16T12:00:59.189Z,99915.59
2022-08-16T12:03:35.391Z,99897.66
2022-08-16T12:06:11.272Z,99930.53
2022-08-16T12:09:00.762Z,99920.72
2022-08-16T12:11:33.316Z,99934.19
2022-08-16T12:14:04.452Z,99887.69
2022-08-16T12:16:35.641Z,99936.22
2022-08-16T12:19:10.705Z,99909.44
2022-08-16T12:21:58.408Z,99800.69
2022-08-16T12:24:29.328Z,99873.81
2022-08-16T12:27:00.150Z,99916.00
2022-08-16T12:29:29.896Z,99915.31
2022-08-16T12:32:12.190Z,99910.13
2022-08-16T12:34:50.617Z,99918.94
2022-08-16T12:37:24.131Z,99918.59
2022-08-16T12:39:55.063Z,99899.47
2022-08-16T12:42:34.778Z,99911.31
2022-08-16T12:45:05.387Z,99908.91
2022-08-16T12:47:55.113Z,99903.16
2022-08-16T12:50:33.366Z,99898.25
2022-08-16T12:53:03.440Z,99903.22
2022-08-16T12:55:33.574Z,99907.06
2022-08-16T12:58:49.132Z,99856.50
2022-08-16T13:01:02.772Z,99908.44
2022-08-16T13:03:32.191Z,99904.63
2022-08-16T13:06:09.058Z,99900.69
2022-08-16T13:08:37.948Z,99897.25
2022-08-16T13:11:08.231Z,99906.63
2022-08-16T13:13:38.938Z,99906.88
2022-08-16T13:16:20.231Z,99894.97
2022-08-16T13:18:52.676Z,99913.41
2022-08-16T13:21:24.180Z,99902.69
2022-08-16T13:23:55.792Z,99905.50
2022-08-16T13:26:26.398Z,99894.00
2022-08-16T13:28:56.986Z,99896.69
2022-08-16T13:31:26.310Z,99908.16
2022-08-16T13:33:58.905Z,99907.09
2022-08-16T13:39:18.198Z,99909.72
2022-08-16T13:41:53.902Z,99911.84
2022-08-16T13:44:48.597Z,99905.19
2022-08-16T13:47:13.491Z,99896.25
2022-08-16T13:49:43.463Z,99879.81
2022-08-16T13:52:12.504Z,99903.84
2022-08-16T13:54:41.312Z,99890.69
2022-08-16T13:57:11.809Z,99891.13
2022-08-16T13:59:43.555Z,99873.56
2022-08-16T14:02:14.035Z,99890.22
2022-08-16T14:04:44.359Z,99858.81
2022-08-16T14:07:20.131Z,99853.03
2022-08-16T14:09:55.071Z,99859.53
2022-08-16T14:12:26.861Z,99871.50
2022-08-16T14:14:57.999Z,99870.91
2022-08-16T14:17:29.049Z,99864.59
2022-08-16T14:20:01.523Z,99869.28
2022-08-16T14:22:35.618Z,99863.22
2022-08-16T14:25:16.574Z,99871.31
2022-08-16T14:27:47.966Z,99870.38
2022-08-16T14:30:23.013Z,99868.34
2022-08-16T14:32:52.692Z,99868.38
2022-08-16T14:35:36.371Z,99877.34
2022-08-16T14:38:06.089Z,99879.28
2022-08-16T14:40:35.612Z,99875.28
2022-08-16T14:43:07.370Z,99881.69
2022-08-16T14:45:37.948Z,99860.97
2022-08-16T14:48:08.296Z,99880.06
2022-08-16T14:50:37.179Z,99874.41
2022-08-16T14:53:09.417Z,99882.28
2022-08-16T14:55:41.098Z,99883.00
2022-08-16T14:58:19.317Z,99883.72
2022-08-16T15:00:51.013Z,99856.56
2022-08-16T15:03:23.312Z,99892.59
2022-08-16T15:05:54.074Z,99890.53
2022-08-16T15:08:36.713Z,99898.53
2022-08-16T15:11:07.601Z,99885.00
2022-08-16T15:13:36.824Z,99895.84
2022-08-16T15:16:07.686Z,99896.72
2022-08-16T15:18:36.802Z,99879.22
2022-08-16T15:21:08.755Z,99902.53
2022-08-16T15:23:40.432Z,99911.28
2022-08-16T15:26:18.824Z,99893.34
2022-08-16T15:29:00.562Z,99913.00
2022-08-16T15:31:31.174Z,99906.31
2022-08-16T15:34:00.326Z,99908.22
2022-08-16T15:36:29.720Z,99899.72
2022-08-16T15:39:05.793Z,99906.25
2022-08-16T15:42:04.957Z,99909.66
2022-08-16T15:44:44.774Z,99913.84
2022-08-16T15:47:26.221Z,99913.44
2022-08-16T15:49:56.562Z,99885.41
2022-08-16T15:52:30.388Z,99908.50
2022-08-16T15:55:12.831Z,99911.22
2022-08-16T15:57:51.647Z,99870.47
2022-08-16T16:00:21.150Z,99905.97
2022-08-16T16:03:01.667Z,99911.78
2022-08-16T16:05:30.936Z,99919.34
2022-08-16T16:08:11.441Z,99914.78
2022-08-16T16:10:43.324Z,99924.56
2022-08-16T16:13:13.383Z,99912.66
2022-08-16T16:15:48.477Z,99922.34
2022-08-16T16:18:20.230Z,99930.28
2022-08-16T16:20:52.036Z,99922.13
2022-08-16T16:23:24.846Z,99938.63
2022-08-16T16:25:54.790Z,99921.94
2022-08-16T16:29:07.867Z,99943.66
2022-08-16T16:31:18.258Z,99906.38
2022-08-16T16:33:52.337Z,99945.31
2022-08-16T16:36:29.356Z,99947.19
2022-08-16T16:38:58.531Z,99940.50
2022-08-16T16:41:30.936Z,99916.03
2022-08-16T16:44:01.377Z,99886.78
2022-08-16T16:46:42.922Z,99931.91
2022-08-16T16:49:15.072Z,99948.47
2022-08-16T16:51:49.975Z,99951.16
2022-08-16T16:54:27.769Z,99958.06
2022-08-16T16:56:58.508Z,99957.00
2022-08-16T16:59:28.441Z,99961.41
2022-08-16T17:02:41.508Z,99961.19
2022-08-16T17:04:50.860Z,99960.16
2022-08-16T17:07:23.990Z,99965.38
2022-08-16T17:09:53.114Z,99962.41
2022-08-16T17:12:46.568Z,99963.63
2022-08-16T17:15:20.739Z,99950.56
2022-08-16T17:17:59.738Z,99958.59
2022-08-16T17:20:32.581Z,99960.72
2022-08-16T17:23:01.819Z,99961.69
2022-08-16T17:25:36.641Z,99957.34
2022-08-16T17:28:58.258Z,99931.31
2022-08-16T17:30:57.133Z,99959.00
2022-08-16T17:33:25.978Z,99961.31
2022-08-16T17:35:56.475Z,99961.53
2022-08-16T17:38:38.810Z,99946.47
2022-08-16T17:41:15.684Z,99966.09
2022-08-16T17:43:46.038Z,99970.19
2022-08-16T17:46:50.089Z,99969.91
2022-08-16T17:49:06.447Z,99944.28
2022-08-16T17:51:36.687Z,99956.38
2022-08-16T17:54:07.071Z,99987.59
2022-08-16T17:56:35.975Z,99980.50
2022-08-16T17:59:05.776Z,99991.13
2022-08-16T18:01:35.050Z,99990.94
2022-08-16T18:04:08.136Z,99992.84
2022-08-16T18:06:40.196Z,99992.41
2022-08-16T18:09:10.448Z,99986.66
2022-08-16T18:11:45.073Z,99980.66
2022-08-16T18:14:15.772Z,99993.34
2022-08-16T18:16:46.307Z,99985.69
2022-08-16T18:19:17.552Z,99985.59
2022-08-16T18:22:04.974Z,99997.69
2022-08-16T18:24:35.261Z,99998.06
2022-08-16T18:27:25.949Z,99982.66
2022-08-16T18:29:53.448Z,99982.88
2022-08-16T18:32:24.772Z,99976.28
2022-08-16T18:34:55.025Z,99994.06
2022-08-16T18:37:25.706Z,99986.31
2022-08-16T18:39:54.584Z,99997.03
2022-08-16T18:42:25.391Z,99993.25
2022-08-16T18:44:57.177Z,99968.00
2022-08-16T18:47:25.977Z,99984.75
2022-08-16T18:49:54.695Z,99968.88
2022-08-16T18:52:25.520Z,99947.13
2022-08-16T18:55:01.451Z,99912.38
2022-08-16T18:57:42.681Z,99969.66
2022-08-16T19:00:13.723Z,99990.63
2022-08-16T19:02:59.099Z,99988.31
2022-08-16T19:05:34.274Z,99955.63
2022-08-16T19:08:04.184Z,99989.50
2022-08-16T19:10:36.875Z,99983.31
2022-08-16T19:13:08.231Z,99981.84
2022-08-16T19:15:37.830Z,99968.78
2022-08-16T19:18:07.666Z,99965.94
2022-08-16T19:20:37.801Z,99972.44
2022-08-16T19:23:10.181Z,99961.81
2022-08-16T19:25:49.672Z,99953.47
2022-08-16T19:28:57.929Z,99957.63
2022-08-16T19:31:43.933Z,99948.03
2022-08-16T19:34:15.847Z,99969.31
2022-08-16T19:36:44.842Z,99952.34
2022-08-16T19:39:18.112Z,99965.97
2022-08-16T19:41:53.543Z,99966.25
2022-08-16T19:44:23.314Z,99961.28
2022-08-16T19:46:52.279Z,99955.44
2022-08-16T19:49:23.476Z,99960.41
2022-08-16T19:51:52.255Z,99950.84
2022-08-16T19:54:21.128Z,99960.63
2022-08-16T19:56:51.438Z,99932.06
2022-08-16T19:59:39.301Z,99948.69
2022-08-16T20:02:35.903Z,99948.03
2022-08-16T20:05:05.780Z,99937.34
2022-08-16T20:07:34.695Z,99953.88
2022-08-16T20:10:03.644Z,99950.56
2022-08-16T20:12:33.772Z,99954.91
2022-08-16T20:15:02.936Z,99938.91
2022-08-16T20:17:31.709Z,99932.41
2022-08-16T20:20:00.543Z,99952.03
2022-08-16T20:22:52.622Z,99938.91
2022-08-16T20:25:28.375Z,99878.25
2022-08-16T20:27:59.126Z,99937.28
2022-08-16T20:30:28.922Z,99930.22
2022-08-16T20:32:58.264Z,99939.00
2022-08-16T20:35:29.455Z,99930.22
2022-08-16T20:38:00.003Z,99940.03
2022-08-16T20:40:35.153Z,99946.47
2022-08-16T20:43:09.457Z,99942.16
2022-08-16T20:45:40.173Z,99940.44
2022-08-16T20:48:09.424Z,99935.81
2022-08-16T20:50:41.504Z,99940.41
2022-08-16T20:53:10.960Z,99919.22
2022-08-16T20:55:41.812Z,99938.78
2022-08-16T20:58:12.124Z,99940.22
2022-08-16T21:00:40.975Z,99943.50
2022-08-16T21:03:11.629Z,99937.25
2022-08-16T21:05:40.631Z,99929.28
2022-08-16T21:08:47.263Z,99940.91
2022-08-16T21:10:59.408Z,99938.16
2022-08-16T21:13:31.679Z,99887.50
2022-08-16T21:16:02.023Z,99938.34
2022-08-16T21:18:30.810Z,99919.94
2022-08-16T21:20:59.516Z,99868.97
2022-08-16T21:23:28.322Z,99929.13
2022-08-16T21:25:58.181Z,99926.84
2022-08-16T21:28:40.361Z,99931.47
2022-08-16T21:31:12.363Z,99913.81
2022-08-16T21:33:43.302Z,99911.41
2022-08-16T21:36:13.192Z,99924.59
2022-08-16T21:38:41.943Z,99920.75
2022-08-16T21:41:12.811Z,99898.06
2022-08-16T21:43:45.394Z,99924.84
2022-08-16T21:46:14.539Z,99918.53
2022-08-16T21:48:43.232Z,99927.72
2022-08-16T21:51:14.187Z,99920.09
2022-08-16T21:53:44.391Z,99935.50
2022-08-16T21:56:16.912Z,99939.31
2022-08-16T21:58:52.982Z,99928.94
2022-08-16T22:01:22.827Z,99936.66
2022-08-16T22:04:36.089Z,99937.44
2022-08-16T22:06:42.382Z,99920.47
2022-08-16T22:09:15.251Z,99932.78
2022-08-16T22:11:44.808Z,99940.03
2022-08-16T22:14:14.925Z,99940.53
2022-08-16T22:16:44.092Z,99920.38
2022-08-16T22:19:13.700Z,99934.22
2022-08-16T22:21:42.485Z,99929.53
2022-08-16T22:24:11.305Z,99935.19
2022-08-16T22:26:43.282Z,99921.94
2022-08-16T22:29:15.081Z,99925.91
2022-08-16T22:31:44.514Z,99929.03
2022-08-16T22:34:13.608Z,99924.31
2022-08-16T22:36:42.849Z,99921.53
2022-08-16T22:39:13.405Z,99929.75
2022-08-16T22:41:43.419Z,99930.53
2022-08-16T22:44:14.151Z,99931.81
2022-08-16T22:46:42.902Z,99938.63
2022-08-16T22:49:12.562Z,99934.25
2022-08-16T22:51:41.998Z,99925.34
2022-08-16T22:54:41.323Z,99771.09
2022-08-16T22:57:00.088Z,99935.97
2022-08-16T22:59:31.966Z,99934.22
2022-08-16T23:02:01.664Z,99932.63
2022-08-16T23:04:31.006Z,99940.16
2022-08-16T23:07:00.043Z,99835.09
2022-08-16T23:09:28.866Z,99938.75
2022-08-16T23:11:57.611Z,99923.13
2022-08-16T23:14:26.356Z,99928.50
2022-08-16T23:16:56.623Z,99941.31
2022-08-16T23:19:25.723Z,99938.47
2022-08-16T23:21:54.572Z,99947.38
2022-08-16T23:24:24.384Z,99949.44
2022-08-16T23:26:53.067Z,99936.19
2022-08-16T23:29:26.460Z,99933.19
2022-08-16T23:31:59.353Z,99920.56
2022-08-16T23:34:29.739Z,99933.31
2022-08-16T23:36:59.035Z,99930.84
2022-08-16T23:39:27.937Z,99922.50
2022-08-16T23:41:56.818Z,99921.19
2022-08-16T23:44:56.818Z,99924.28
2022-08-16T23:47:15.674Z,99920.56
2022-08-16T23:50:01.413Z,99921.28
2022-08-16T23:52:40.506Z,99928.38
2022-08-16T23:55:21.358Z,99929.59
2022-08-16T23:57:50.229Z,99919.44
